Time;durP1;ratioP1;P1;durP2;ratioP2;P2;SDS_P1;SDS_P2;PMS_P1;PMS_P2;Temp;Humidity;BMP_temperature;BMP_pressure;BME280_temperature;BME280_humidity;BME280_pressure;Samples;Min_cycle;Max_cycle;Signal;HPM_P1;HPM_P2
2022/08/02 04:01:01;;;;;;;4.38;4.03;;;11.60;99.90;;;;;;5621058;23;20254;-70
2022/08/02 04:03:29;;;;;;;7.28;4.00;;;11.60;99.90;;;;;;4931676;29;20230;-67
2022/08/02 04:05:56;;;;;;;4.45;4.05;;;11.60;99.90;;;;;;4934396;29;20635;-68
2022/08/02 04:08:22;;;;;;;4.80;3.95;;;11.70;99.90;;;;;;4934292;29;20211;-69
2022/08/02 04:13:36;;;;;;;3.80;3.60;;;11.70;99.90;;;;;;4933017;29;20219;-69
2022/08/02 04:16:10;;;;;;;3.60;3.33;;;11.80;99.90;;;;;;4947803;23;20541;-73
2022/08/02 04:18:42;;;;;;;3.75;3.55;;;11.80;99.90;;;;;;4931837;29;20218;-72
2022/08/02 04:21:14;;;;;;;4.30;3.70;;;11.80;99.90;;;;;;4930488;29;20195;-73
2022/08/02 04:23:43;;;;;;;4.18;3.88;;;11.80;99.90;;;;;;4917010;29;20223;-73
2022/08/02 04:26:11;;;;;;;8.95;4.45;;;11.80;99.90;;;;;;4933935;29;20236;-73
2022/08/02 04:28:38;;;;;;;3.40;3.20;;;11.80;99.90;;;;;;4931375;29;20264;-72
2022/08/02 04:31:07;;;;;;;7.65;3.70;;;11.90;99.90;;;;;;4933394;29;20230;-74
2022/08/02 04:33:36;;;;;;;3.97;3.78;;;11.90;99.90;;;;;;4931053;29;20220;-73
2022/08/02 04:36:03;;;;;;;3.97;3.70;;;12.00;99.90;;;;;;4930812;29;20231;-73
2022/08/02 04:38:30;;;;;;;4.28;3.85;;;12.10;99.90;;;;;;4932344;29;20723;-72
2022/08/02 04:40:56;;;;;;;3.72;3.53;;;12.20;99.90;;;;;;4932599;29;20216;-72
2022/08/02 04:43:24;;;;;;;3.83;3.40;;;12.30;99.90;;;;;;4932222;29;20208;-73
2022/08/02 04:45:54;;;;;;;3.58;3.33;;;12.30;99.90;;;;;;4932047;29;20581;-72
2022/08/02 04:48:23;;;;;;;3.55;3.13;;;12.40;99.90;;;;;;4932055;29;20211;-73
2022/08/02 04:50:50;;;;;;;3.72;3.53;;;12.50;99.90;;;;;;4931468;29;20295;-72
2022/08/02 04:53:16;;;;;;;4.07;3.72;;;12.70;99.90;;;;;;4931679;29;20283;-72
2022/08/02 04:55:43;;;;;;;3.72;3.42;;;12.80;99.90;;;;;;4932582;29;20227;-73
2022/08/02 04:58:10;;;;;;;3.30;3.20;;;12.80;99.90;;;;;;4927722;29;20309;-72
2022/08/02 05:00:37;;;;;;;4.70;3.47;;;13.10;99.90;;;;;;4931349;29;21093;-72
2022/08/02 05:03:04;;;;;;;4.77;2.83;;;13.40;99.90;;;;;;4932770;29;21057;-73
2022/08/02 05:05:32;;;;;;;3.37;3.07;;;13.70;99.90;;;;;;4927965;29;20563;-73
2022/08/02 05:07:59;;;;;;;4.23;2.83;;;13.90;99.90;;;;;;4930527;29;20480;-73
2022/08/02 05:10:26;;;;;;;2.63;2.53;;;14.30;99.90;;;;;;4930363;29;20481;-73
2022/08/02 05:12:52;;;;;;;4.70;2.60;;;14.40;99.90;;;;;;4933253;29;20470;-73
2022/08/02 05:15:19;;;;;;;3.23;3.07;;;14.40;99.90;;;;;;4931339;29;20522;-74
2022/08/02 05:17:48;;;;;;;3.07;3.07;;;14.20;99.90;;;;;;4930977;29;20510;-73
2022/08/02 05:20:15;;;;;;;4.53;3.40;;;14.00;99.90;;;;;;4930398;29;20543;-73
2022/08/02 05:22:43;;;;;;;3.77;3.47;;;13.80;99.90;;;;;;4931192;29;20480;-73
2022/08/02 05:25:10;;;;;;;3.53;3.33;;;13.70;99.90;;;;;;4926979;29;20498;-73
2022/08/02 05:27:37;;;;;;;4.70;3.27;;;13.60;99.90;;;;;;4931522;29;20527;-73
2022/08/02 05:30:05;;;;;;;3.50;3.40;;;13.50;99.90;;;;;;4931858;29;21078;-73
2022/08/02 05:32:32;;;;;;;4.10;3.90;;;13.50;99.90;;;;;;4930433;29;20484;-72
2022/08/02 05:35:00;;;;;;;3.27;3.07;;;13.50;99.90;;;;;;4931100;29;20654;-73
2022/08/02 05:37:27;;;;;;;3.93;3.53;;;13.40;99.90;;;;;;4931022;29;21096;-73
2022/08/02 05:39:55;;;;;;;3.53;3.23;;;13.30;99.90;;;;;;4930278;29;20476;-74
2022/08/02 05:42:21;;;;;;;3.60;3.30;;;13.30;99.90;;;;;;4931599;29;20479;-73
2022/08/02 05:44:49;;;;;;;3.50;3.40;;;13.30;99.90;;;;;;4929679;29;20468;-73
2022/08/02 05:47:15;;;;;;;3.50;3.20;;;13.30;99.90;;;;;;4931752;29;20484;-72
2022/08/02 05:49:42;;;;;;;3.20;3.10;;;13.30;99.90;;;;;;4931585;29;20480;-73
2022/08/02 05:52:15;;;;;;;3.80;3.57;;;13.30;99.90;;;;;;4931090;29;20303;-73
2022/08/02 05:54:49;;;;;;;3.60;3.40;;;13.40;99.90;;;;;;4928152;29;20584;-73
2022/08/02 05:57:30;;;;;;;3.63;3.40;;;13.30;99.90;;;;;;4928484;29;20254;-73
2022/08/02 06:00:06;;;;;;;4.47;4.10;;;13.30;99.90;;;;;;4931847;29;20478;-73
2022/08/02 06:02:43;;;;;;;5.13;4.57;;;13.40;99.90;;;;;;4930081;29;20472;-72
2022/08/02 06:05:12;;;;;;;4.10;3.70;;;13.40;99.90;;;;;;4925946;29;20476;-72
2022/08/02 06:07:43;;;;;;;4.83;3.70;;;13.60;99.90;;;;;;4930520;29;20567;-72
2022/08/02 06:10:12;;;;;;;4.03;3.73;;;13.90;99.90;;;;;;4930805;29;20466;-72
2022/08/02 06:12:46;;;;;;;3.90;3.60;;;14.00;99.90;;;;;;4930853;29;20551;-72
2022/08/02 06:15:14;;;;;;;5.60;3.20;;;14.40;99.90;;;;;;4925792;29;20848;-72
2022/08/02 06:17:41;;;;;;;2.17;2.07;;;15.20;99.90;;;;;;4928760;29;20559;-73
2022/08/02 06:20:11;;;;;;;4.63;2.27;;;16.20;99.90;;;;;;4930958;29;20532;-72
2022/08/02 06:22:40;;;;;;;2.50;2.13;;;17.10;99.90;;;;;;4930245;29;20672;-72
2022/08/02 06:25:08;;;;;;;2.07;1.90;;;17.70;99.90;;;;;;4932580;29;20837;-74
2022/08/02 06:27:35;;;;;;;4.33;2.20;;;18.20;99.90;;;;;;4929060;29;20558;-73
2022/08/02 06:30:05;;;;;;;2.13;2.03;;;18.60;99.90;;;;;;4927801;29;20472;-73
2022/08/02 06:32:33;;;;;;;1.67;1.67;;;19.10;99.90;;;;;;4929186;29;20530;-73
2022/08/02 06:35:00;;;;;;;2.10;1.90;;;19.50;99.90;;;;;;4932937;29;20472;-73
2022/08/02 06:37:31;;;;;;;2.43;2.33;;;20.20;99.90;;;;;;4932784;29;20549;-73
2022/08/02 06:40:05;;;;;;;2.40;1.87;;;20.70;99.90;;;;;;4935473;29;20465;-73
2022/08/02 06:42:40;;;;;;;2.00;1.83;;;21.40;99.90;;;;;;4932733;29;20508;-73
2022/08/02 06:45:09;;;;;;;2.33;2.13;;;21.90;99.90;;;;;;4935202;29;20958;-72
2022/08/02 06:47:36;;;;;;;1.57;1.47;;;22.30;99.90;;;;;;4934111;29;20864;-73
2022/08/02 06:50:03;;;;;;;2.00;1.77;;;22.50;99.90;;;;;;4934438;29;20880;-73
2022/08/02 06:52:30;;;;;;;1.77;1.67;;;22.70;99.90;;;;;;4935160;29;20913;-75
2022/08/02 06:54:58;;;;;;;2.10;1.20;;;22.80;99.90;;;;;;4934294;29;20549;-74
2022/08/02 06:57:25;;;;;;;2.13;1.40;;;22.60;99.90;;;;;;4933585;29;20872;-74
2022/08/02 06:59:52;;;;;;;4.37;1.60;;;22.50;99.90;;;;;;4932871;29;20958;-74
2022/08/02 07:02:21;;;;;;;2.00;1.80;;;22.60;99.90;;;;;;4933413;29;20541;-74
2022/08/02 07:04:47;;;;;;;4.47;1.63;;;22.90;99.90;;;;;;4932507;29;20474;-73
2022/08/02 07:07:14;;;;;;;2.93;2.60;;;22.90;99.90;;;;;;4934129;29;20501;-74
2022/08/02 07:09:41;;;;;;;4.27;3.97;;;22.70;99.90;;;;;;4934448;29;20491;-74
2022/08/02 07:12:08;;;;;;;2.77;2.00;;;22.50;99.90;;;;;;4933954;29;20474;-74
2022/08/02 07:14:35;;;;;;;2.27;1.90;;;22.80;99.90;;;;;;4934139;29;20478;-74
2022/08/02 07:17:01;;;;;;;1.70;1.60;;;22.70;99.90;;;;;;4932189;29;20489;-74
2022/08/02 07:19:29;;;;;;;3.13;2.00;;;22.70;99.90;;;;;;4933759;29;20847;-77
2022/08/02 07:21:56;;;;;;;1.53;1.43;;;23.20;99.90;;;;;;4933929;29;20548;-72
2022/08/02 07:24:23;;;;;;;3.60;1.80;;;23.10;99.90;;;;;;4932541;29;20470;-73
2022/08/02 07:26:50;;;;;;;1.63;1.53;;;23.20;99.90;;;;;;4935290;29;20561;-73
2022/08/02 07:29:16;;;;;;;1.13;1.13;;;23.60;99.90;;;;;;4932965;29;20796;-73
2022/08/02 07:31:43;;;;;;;2.00;1.83;;;23.40;99.90;;;;;;4934085;29;20517;-74
2022/08/02 07:34:10;;;;;;;2.53;1.80;;;23.80;99.90;;;;;;4932182;29;20465;-72
2022/08/02 07:36:38;;;;;;;5.37;2.27;;;24.40;99.90;;;;;;4934061;29;20538;-73
2022/08/02 07:39:04;;;;;;;1.70;1.60;;;24.50;99.90;;;;;;4931743;29;20487;-73
2022/08/02 07:41:31;;;;;;;2.40;2.00;;;24.50;99.90;;;;;;4933288;29;20473;-73
2022/08/02 07:43:58;;;;;;;2.23;1.70;;;24.70;99.90;;;;;;4933448;29;20576;-73
2022/08/02 07:46:25;;;;;;;3.13;1.73;;;24.40;99.90;;;;;;4932921;29;20568;-73
2022/08/02 07:48:53;;;;;;;3.67;2.07;;;24.40;99.90;;;;;;4932114;29;20563;-73
2022/08/02 07:51:20;;;;;;;4.50;2.30;;;24.70;99.90;;;;;;4929032;29;20481;-73
2022/08/02 07:53:48;;;;;;;4.90;1.90;;;25.00;99.90;;;;;;4930908;29;20478;-73
2022/08/02 07:56:15;;;;;;;3.87;2.03;;;24.90;99.90;;;;;;4931866;29;20501;-72
2022/08/02 07:58:42;;;;;;;1.43;1.43;;;24.50;99.90;;;;;;4933578;29;20556;-74
2022/08/02 08:01:09;;;;;;;2.53;1.90;;;24.00;99.90;;;;;;4932832;29;20469;-73
2022/08/02 08:03:35;;;;;;;2.73;2.33;;;23.50;99.90;;;;;;4932425;29;20954;-74
2022/08/02 08:06:02;;;;;;;4.13;2.13;;;23.20;99.90;;;;;;4923594;29;20501;-73
2022/08/02 08:08:29;;;;;;;4.03;3.00;;;22.90;99.90;;;;;;4927759;29;20482;-73
2022/08/02 08:10:57;;;;;;;5.30;2.60;;;22.90;99.90;;;;;;4931785;29;20477;-74
2022/08/02 08:13:24;;;;;;;4.40;2.27;;;22.50;99.90;;;;;;4932457;29;20474;-73
2022/08/02 08:15:50;;;;;;;3.10;2.90;;;22.30;99.90;;;;;;4932591;29;20477;-74
2022/08/02 08:18:17;;;;;;;2.83;2.10;;;22.20;99.90;;;;;;4931768;29;20563;-74
2022/08/02 08:20:44;;;;;;;2.93;2.10;;;22.10;99.90;;;;;;4930166;29;20475;-73
2022/08/02 08:23:10;;;;;;;6.07;2.67;;;22.00;99.90;;;;;;4932486;29;20472;-72
2022/08/02 08:25:37;;;;;;;4.07;2.20;;;21.60;99.90;;;;;;4930556;29;20502;-73
2022/08/02 08:28:06;;;;;;;3.17;2.27;;;21.50;99.90;;;;;;4933264;29;20577;-73
2022/08/02 08:30:33;;;;;;;3.97;3.00;;;21.40;99.90;;;;;;4931963;29;20549;-73
2022/08/02 08:33:00;;;;;;;2.83;2.17;;;21.30;99.90;;;;;;4932362;29;20501;-74
2022/08/02 08:35:27;;;;;;;3.97;2.50;;;21.30;99.90;;;;;;4931322;29;20476;-73
2022/08/02 08:37:54;;;;;;;2.93;2.73;;;21.10;99.90;;;;;;4932137;29;20556;-73
2022/08/02 08:40:20;;;;;;;2.93;2.40;;;21.00;99.90;;;;;;4930923;29;20477;-73
2022/08/02 08:42:47;;;;;;;5.37;2.00;;;21.10;99.90;;;;;;4928112;29;20461;-74
2022/08/02 08:45:16;;;;;;;2.57;2.40;;;20.90;99.90;;;;;;4937460;29;20510;-73
2022/08/02 08:47:43;;;;;;;2.63;2.20;;;20.90;99.90;;;;;;4935022;29;20573;-73
2022/08/02 08:50:14;;;;;;;2.87;2.33;;;20.80;99.90;;;;;;4933588;29;20571;-74
2022/08/02 08:52:43;;;;;;;5.83;2.60;;;20.80;99.90;;;;;;4929859;29;20502;-74
2022/08/02 08:55:10;;;;;;;3.40;2.40;;;20.90;99.90;;;;;;4932270;29;20471;-74
2022/08/02 08:57:41;;;;;;;6.93;3.27;;;21.00;99.90;;;;;;4928235;29;20497;-73
2022/08/02 09:00:09;;;;;;;2.63;2.50;;;20.90;99.90;;;;;;4932637;29;20475;-73
2022/08/02 09:02:37;;;;;;;5.50;2.10;;;20.90;99.90;;;;;;4931319;29;20466;-73
2022/08/02 09:05:04;;;;;;;3.50;2.50;;;21.00;99.90;;;;;;4931104;29;20478;-74
2022/08/02 09:07:31;;;;;;;4.30;2.30;;;21.00;99.90;;;;;;4931299;29;20491;-73
2022/08/02 09:09:58;;;;;;;3.53;2.00;;;20.90;99.90;;;;;;4927918;29;20920;-74
2022/08/02 09:12:24;;;;;;;2.70;2.30;;;21.10;99.90;;;;;;4930308;29;20470;-73
2022/08/02 09:14:51;;;;;;;3.13;2.37;;;21.20;99.90;;;;;;4931477;29;20473;-73
2022/08/02 09:17:19;;;;;;;3.73;2.10;;;21.20;99.90;;;;;;4929322;29;20498;-74
2022/08/02 09:19:47;;;;;;;3.80;3.53;;;21.30;99.90;;;;;;4932753;29;20463;-73
2022/08/02 09:22:14;;;;;;;4.63;3.10;;;21.40;99.90;;;;;;4929948;29;20490;-72
2022/08/02 09:24:44;;;;;;;4.10;3.60;;;21.40;99.90;;;;;;4928619;29;20892;-74
2022/08/02 09:27:12;;;;;;;5.33;3.30;;;21.40;99.90;;;;;;4931646;29;20895;-74
2022/08/02 09:29:39;;;;;;;2.70;2.30;;;21.40;99.90;;;;;;4930556;29;20585;-73
2022/08/02 09:32:07;;;;;;;5.97;3.47;;;21.40;99.90;;;;;;4932230;29;20482;-73
2022/08/02 09:34:49;;;;;;;3.13;2.87;;;21.50;99.90;;;;;;4928605;29;20574;-73
2022/08/02 09:37:23;;;;;;;5.60;3.00;;;21.60;99.90;;;;;;4927080;29;20495;-73
2022/08/02 09:39:50;;;;;;;5.20;2.90;;;21.60;99.90;;;;;;4931183;29;21104;-72
2022/08/02 09:42:17;;;;;;;3.10;2.90;;;21.70;99.90;;;;;;4931934;29;20474;-73
2022/08/02 09:44:54;;;;;;;4.37;2.93;;;21.70;99.90;;;;;;4929760;29;20569;-73
2022/08/02 09:47:21;;;;;;;3.10;2.80;;;21.70;99.90;;;;;;4930881;29;20922;-73
2022/08/02 09:49:49;;;;;;;3.03;2.50;;;21.80;99.90;;;;;;4929604;29;20567;-73
2022/08/02 09:52:22;;;;;;;3.20;2.93;;;21.90;99.90;;;;;;4929997;29;20475;-73
2022/08/02 09:54:49;;;;;;;8.30;2.97;;;21.90;99.90;;;;;;4929048;28;20478;-74
2022/08/02 09:57:25;;;;;;;3.33;2.60;;;21.90;99.90;;;;;;4929675;29;20566;-72
2022/08/02 09:59:54;;;;;;;5.20;2.87;;;22.00;99.90;;;;;;4927836;29;20475;-73
2022/08/02 10:02:21;;;;;;;2.77;2.60;;;22.10;99.90;;;;;;4920076;29;20474;-73
2022/08/02 10:04:49;;;;;;;3.50;2.90;;;22.20;99.90;;;;;;4929105;29;20478;-73
2022/08/02 10:07:16;;;;;;;3.17;2.70;;;22.30;99.90;;;;;;4930213;29;20495;-72
2022/08/02 10:09:44;;;;;;;4.00;2.70;;;22.30;99.90;;;;;;4929326;29;20526;-72
2022/08/02 10:12:12;;;;;;;4.40;2.60;;;22.30;99.90;;;;;;4934503;29;20471;-72
2022/08/02 10:14:39;;;;;;;3.00;2.80;;;22.40;99.90;;;;;;4933950;29;20476;-74
2022/08/02 10:17:06;;;;;;;2.80;2.60;;;22.50;99.90;;;;;;4931012;29;20594;-73
2022/08/02 10:19:34;;;;;;;4.50;3.10;;;22.40;99.90;;;;;;4933776;29;20865;-73
2022/08/02 10:22:06;;;;;;;5.53;3.30;;;22.50;99.90;;;;;;4933620;29;20510;-74
2022/08/02 10:24:38;;;;;;;5.90;3.87;;;22.60;99.90;;;;;;4934219;29;20538;-73
2022/08/02 10:27:07;;;;;;;3.13;2.50;;;22.60;99.90;;;;;;4932904;29;20513;-74
2022/08/02 10:29:36;;;;;;;2.10;2.00;;;22.70;99.90;;;;;;4935762;29;20478;-74
2022/08/02 10:32:06;;;;;;;2.37;2.27;;;22.70;99.90;;;;;;4928742;29;20554;-74
2022/08/02 10:34:37;;;;;;;2.43;2.23;;;22.80;99.90;;;;;;4935655;29;20460;-74
2022/08/02 10:37:08;;;;;;;4.23;2.23;;;22.90;99.90;;;;;;4934848;29;20498;-75
2022/08/02 10:39:45;;;;;;;4.43;2.60;;;22.90;99.90;;;;;;4934869;29;20910;-74
2022/08/02 10:42:34;;;;;;;3.20;2.30;;;23.00;99.90;;;;;;4935034;29;20522;-74
2022/08/02 10:45:09;;;;;;;2.23;2.07;;;23.00;99.90;;;;;;4930692;29;20467;-75
2022/08/02 10:47:36;;;;;;;2.00;1.90;;;23.10;99.90;;;;;;4934716;29;20566;-74
2022/08/02 10:50:03;;;;;;;2.33;2.23;;;23.10;99.90;;;;;;4934823;29;20467;-75
2022/08/02 10:52:31;;;;;;;2.83;2.43;;;23.20;99.90;;;;;;4936405;29;20500;-75
2022/08/02 10:55:00;;;;;;;3.57;3.27;;;23.20;99.90;;;;;;4943133;29;20470;-77
2022/08/02 10:57:28;;;;;;;2.97;2.33;;;23.20;99.90;;;;;;4941884;29;20523;-76
2022/08/02 10:59:57;;;;;;;1.90;1.80;;;23.30;99.90;;;;;;4927603;29;20828;-76
2022/08/02 11:02:39;;;;;;;2.43;2.33;;;23.40;99.90;;;;;;4930132;29;20539;-76
2022/08/02 11:05:13;;;;;;;2.17;2.00;;;23.50;99.90;;;;;;4933645;29;20478;-75
2022/08/02 11:07:42;;;;;;;2.40;2.20;;;23.60;99.90;;;;;;4928326;29;20494;-78
2022/08/02 11:10:34;;;;;;;2.07;2.03;;;23.80;99.90;;;;;;4934220;29;20960;-76
2022/08/02 11:13:10;;;;;;;1.77;1.70;;;23.80;99.20;;;;;;4929289;29;20558;-76
2022/08/02 11:15:56;;;;;;;1.90;1.80;;;23.80;99.30;;;;;;4932408;29;20479;-78
2022/08/02 11:18:24;;;;;;;2.10;2.10;;;23.80;97.40;;;;;;4934950;29;20563;-77
2022/08/02 11:21:22;;;;;;;1.67;1.67;;;23.80;97.40;;;;;;4929125;29;20547;-76
2022/08/02 11:23:50;;;;;;;2.10;1.90;;;23.80;97.50;;;;;;4931280;29;20504;-76
2022/08/02 11:26:42;;;;;;;2.47;2.37;;;23.90;98.50;;;;;;4925199;29;20530;-76
2022/08/02 11:29:09;;;;;;;1.97;1.87;;;24.00;97.80;;;;;;4931752;29;20547;-75
2022/08/02 11:31:41;;;;;;;2.17;2.17;;;24.00;98.90;;;;;;4925906;29;20461;-76
2022/08/02 11:34:07;;;;;;;2.23;2.10;;;24.10;99.10;;;;;;4935001;29;20472;-77
2022/08/02 11:36:44;;;;;;;3.23;2.10;;;24.10;99.70;;;;;;4932707;29;20516;-76
2022/08/02 11:39:13;;;;;;;2.17;2.07;;;24.20;98.80;;;;;;4933681;29;20803;-76
2022/08/02 11:41:40;;;;;;;3.07;1.80;;;24.30;98.90;;;;;;4931471;29;20468;-78
2022/08/02 11:44:07;;;;;;;3.33;2.07;;;24.40;98.30;;;;;;4935016;29;20480;-75
2022/08/02 11:46:34;;;;;;;2.80;2.40;;;24.40;99.10;;;;;;4934711;29;20501;-73
2022/08/02 11:49:13;;;;;;;2.43;2.20;;;24.50;99.30;;;;;;4932911;29;20956;-73
2022/08/02 11:51:39;;;;;;;2.47;2.20;;;24.50;99.50;;;;;;4926617;29;21119;-70
2022/08/02 11:54:06;;;;;;;2.27;2.17;;;24.60;99.90;;;;;;4934567;29;20626;-71
2022/08/02 11:56:34;;;;;;;2.73;2.63;;;24.60;99.90;;;;;;4935032;29;20548;-73
2022/08/02 11:59:02;;;;;;;2.70;2.50;;;24.50;99.80;;;;;;4934703;29;20644;-73
2022/08/02 12:01:31;;;;;;;2.17;2.07;;;24.60;99.90;;;;;;4934801;29;20490;-71
2022/08/02 12:03:59;;;;;;;5.90;2.70;;;24.70;99.20;;;;;;4930159;29;20508;-70
2022/08/02 12:06:28;;;;;;;2.47;2.33;;;24.80;99.70;;;;;;4931558;29;20527;-72
2022/08/02 12:08:59;;;;;;;2.50;2.30;;;24.90;99.80;;;;;;4931942;29;20474;-71
2022/08/02 12:11:26;;;;;;;3.70;3.00;;;25.00;99.90;;;;;;4934082;29;20556;-77
2022/08/02 12:13:54;;;;;;;3.70;2.57;;;25.20;99.90;;;;;;4936467;29;20470;-75
2022/08/02 12:19:25;;;;;;;2.50;2.40;;;25.30;99.30;;;;;;4912540;29;20506;-71
2022/08/02 12:22:10;;;;;;;3.40;1.90;;;25.40;98.10;;;;;;4908833;29;20837;-72
2022/08/02 12:24:38;;;;;;;2.40;2.20;;;25.50;97.60;;;;;;4917919;29;20517;-74
2022/08/02 12:27:05;;;;;;;2.00;1.90;;;25.60;97.30;;;;;;4929822;29;20597;-71
2022/08/02 12:29:36;;;;;;;4.63;1.90;;;25.60;95.30;;;;;;4934248;29;20454;-70
2022/08/02 12:32:05;;;;;;;1.87;1.83;;;25.70;95.70;;;;;;4933621;29;20541;-74
2022/08/02 12:34:33;;;;;;;3.77;1.67;;;25.80;94.60;;;;;;4933716;29;20470;-74
2022/08/02 12:37:05;;;;;;;2.03;2.00;;;25.80;92.70;;;;;;4933608;29;20979;-74
2022/08/02 12:39:37;;;;;;;1.97;1.97;;;26.00;93.20;;;;;;4932289;29;20490;-71
2022/08/02 12:42:05;;;;;;;2.03;1.93;;;26.00;92.60;;;;;;4932848;29;20477;-71
2022/08/02 12:44:32;;;;;;;2.00;1.90;;;25.90;93.00;;;;;;4933455;29;20474;-70
2022/08/02 12:47:01;;;;;;;2.13;2.03;;;26.00;93.00;;;;;;4934084;29;20487;-70
2022/08/02 12:49:28;;;;;;;1.87;1.73;;;26.10;93.50;;;;;;4933479;29;20469;-71
2022/08/02 12:51:55;;;;;;;2.10;2.00;;;26.30;92.50;;;;;;4933806;29;20470;-70
2022/08/02 12:54:23;;;;;;;2.07;1.97;;;26.30;92.90;;;;;;4920858;29;20532;-70
2022/08/02 12:56:50;;;;;;;2.33;2.33;;;26.30;93.50;;;;;;4933882;29;20486;-74
2022/08/02 12:59:32;;;;;;;3.20;2.60;;;26.30;93.20;;;;;;4933310;29;20854;-71
2022/08/02 13:02:03;;;;;;;3.30;2.50;;;26.30;93.20;;;;;;4933547;29;20478;-71
2022/08/02 13:04:30;;;;;;;3.50;1.90;;;26.40;93.10;;;;;;4932915;29;20466;-73
2022/08/02 13:06:57;;;;;;;2.50;2.40;;;26.40;93.60;;;;;;4933772;29;20486;-70
2022/08/02 13:09:23;;;;;;;1.90;1.80;;;26.50;93.20;;;;;;4932672;29;20939;-71
2022/08/02 13:11:50;;;;;;;2.40;2.30;;;26.60;93.00;;;;;;4932851;29;21139;-70
2022/08/02 13:14:17;;;;;;;2.57;2.37;;;26.60;93.50;;;;;;4933309;29;20887;-70
2022/08/02 13:16:46;;;;;;;1.67;1.67;;;26.60;91.80;;;;;;4933305;29;20500;-70
2022/08/02 13:19:14;;;;;;;2.47;2.37;;;26.70;92.10;;;;;;4933267;29;20486;-70
2022/08/02 13:21:42;;;;;;;2.50;2.30;;;26.70;91.40;;;;;;4933656;29;21037;-71
2022/08/02 13:24:10;;;;;;;1.70;1.70;;;26.70;91.60;;;;;;4932974;29;20461;-71
2022/08/02 13:26:36;;;;;;;1.87;1.77;;;26.80;90.50;;;;;;4932704;29;20497;-70
2022/08/02 13:29:03;;;;;;;2.17;1.73;;;26.80;89.50;;;;;;4933419;29;20485;-70
2022/08/02 13:31:32;;;;;;;1.83;1.83;;;26.90;90.20;;;;;;4935239;29;20473;-70
2022/08/02 13:33:59;;;;;;;1.93;1.83;;;26.90;88.90;;;;;;4939236;29;20485;-73
2022/08/02 13:36:27;;;;;;;2.23;2.07;;;27.00;89.40;;;;;;4931072;29;20517;-71
2022/08/02 13:38:54;;;;;;;2.00;1.90;;;27.10;90.60;;;;;;4931097;29;20549;-70
2022/08/02 13:41:21;;;;;;;2.50;1.70;;;27.20;88.60;;;;;;4931988;29;20621;-70
2022/08/02 13:43:47;;;;;;;2.20;1.70;;;27.10;87.80;;;;;;4931547;29;20963;-72
2022/08/02 13:46:15;;;;;;;1.70;1.70;;;27.20;87.30;;;;;;4929244;29;20489;-77
2022/08/02 13:48:42;;;;;;;1.70;1.70;;;27.30;85.40;;;;;;4936442;29;20458;-71
2022/08/02 13:51:10;;;;;;;1.80;1.70;;;27.20;83.00;;;;;;4935932;29;20474;-71
2022/08/02 13:53:38;;;;;;;1.63;1.63;;;27.20;83.60;;;;;;4936306;29;20472;-70
2022/08/02 13:56:05;;;;;;;1.77;1.67;;;27.20;81.70;;;;;;4935712;29;20557;-70
2022/08/02 13:58:32;;;;;;;1.70;1.63;;;27.20;81.60;;;;;;4935112;29;20490;-72
2022/08/02 14:00:59;;;;;;;1.90;1.83;;;27.30;82.60;;;;;;4936512;29;20518;-70
2022/08/02 14:03:26;;;;;;;1.70;1.70;;;27.30;82.20;;;;;;4926758;29;20477;-71
2022/08/02 14:05:53;;;;;;;3.53;1.73;;;27.30;81.60;;;;;;4933019;29;20928;-70
2022/08/02 14:08:21;;;;;;;1.70;1.60;;;27.30;82.40;;;;;;4934406;29;20513;-70
2022/08/02 14:10:51;;;;;;;2.07;1.97;;;27.30;81.60;;;;;;4936514;29;20465;-70
2022/08/02 14:13:18;;;;;;;1.63;1.63;;;27.40;80.90;;;;;;4934446;29;20526;-73
2022/08/02 14:15:45;;;;;;;1.80;1.70;;;27.30;80.90;;;;;;4935353;29;20874;-72
2022/08/02 14:18:14;;;;;;;1.93;1.83;;;27.30;82.20;;;;;;4934006;29;20480;-70
2022/08/02 14:20:40;;;;;;;1.73;1.63;;;27.40;81.40;;;;;;4936618;29;20498;-70
2022/08/02 14:23:07;;;;;;;1.93;1.70;;;27.40;80.50;;;;;;4932800;29;20816;-70
2022/08/02 14:25:34;;;;;;;2.03;1.93;;;27.40;80.40;;;;;;4930398;29;20471;-72
2022/08/02 14:28:02;;;;;;;2.03;2.03;;;27.40;80.20;;;;;;4931503;29;20987;-74
2022/08/02 14:30:29;;;;;;;1.93;1.83;;;27.50;81.30;;;;;;4931724;29;20616;-71
2022/08/02 14:32:56;;;;;;;2.33;1.80;;;27.50;80.90;;;;;;4934013;29;21005;-71
2022/08/02 14:35:23;;;;;;;1.50;1.50;;;27.40;80.40;;;;;;4933610;29;20932;-73
2022/08/02 14:37:49;;;;;;;1.87;1.77;;;27.30;80.00;;;;;;4935552;29;20554;-71
2022/08/02 14:40:16;;;;;;;1.80;1.70;;;27.30;81.30;;;;;;4933996;29;20541;-71
2022/08/02 14:42:43;;;;;;;1.90;1.80;;;27.30;80.80;;;;;;4934639;29;20473;-71
2022/08/02 14:45:11;;;;;;;1.63;1.53;;;27.30;81.60;;;;;;4934703;29;20548;-71
2022/08/02 14:47:37;;;;;;;2.43;2.33;;;27.40;81.70;;;;;;4934656;29;20494;-75
2022/08/02 14:50:06;;;;;;;1.83;1.67;;;27.40;80.60;;;;;;4933533;29;20521;-71
2022/08/02 14:52:33;;;;;;;1.73;1.67;;;27.40;80.60;;;;;;4934356;29;20481;-76
2022/08/02 14:55:00;;;;;;;1.77;1.67;;;27.50;80.50;;;;;;4929560;29;20955;-71
2022/08/02 14:57:27;;;;;;;1.80;1.77;;;27.60;80.60;;;;;;4932123;29;21081;-70
2022/08/02 14:59:53;;;;;;;2.47;1.60;;;27.60;80.50;;;;;;4935277;29;20627;-71
2022/08/02 15:02:21;;;;;;;1.77;1.67;;;27.70;82.20;;;;;;4934671;29;20541;-71
2022/08/02 15:04:48;;;;;;;1.60;1.60;;;27.70;81.20;;;;;;4933261;29;20978;-73
2022/08/02 15:07:15;;;;;;;1.30;1.30;;;27.60;80.40;;;;;;4934668;29;20503;-75
2022/08/02 15:09:41;;;;;;;2.00;1.80;;;27.50;80.60;;;;;;4934934;29;20485;-72
2022/08/02 15:12:09;;;;;;;1.50;1.50;;;27.50;81.30;;;;;;4934697;29;20620;-70
2022/08/02 15:14:36;;;;;;;1.80;1.70;;;27.60;82.20;;;;;;4935001;29;20533;-71
2022/08/02 15:17:03;;;;;;;1.90;1.90;;;27.60;83.00;;;;;;4933709;29;20498;-71
2022/08/02 15:19:31;;;;;;;2.93;1.73;;;27.60;84.20;;;;;;4932613;29;20836;-72
2022/08/02 15:21:58;;;;;;;1.70;1.70;;;27.60;85.00;;;;;;4935465;29;20466;-70
2022/08/02 15:24:25;;;;;;;1.97;1.97;;;27.70;83.50;;;;;;4934127;29;20472;-71
2022/08/02 15:26:52;;;;;;;1.70;1.70;;;27.80;85.10;;;;;;4934992;29;20494;-73
2022/08/02 15:29:19;;;;;;;2.13;2.03;;;27.80;85.00;;;;;;4931297;29;20501;-70
2022/08/02 15:31:46;;;;;;;2.40;2.20;;;27.90;84.50;;;;;;4934350;29;20959;-73
2022/08/02 15:34:13;;;;;;;1.83;1.80;;;28.00;84.60;;;;;;4931508;29;20514;-70
2022/08/02 15:36:41;;;;;;;2.00;1.90;;;28.00;84.10;;;;;;4933501;29;20490;-72
2022/08/02 15:39:08;;;;;;;1.57;1.57;;;28.00;84.50;;;;;;4932270;29;20568;-70
2022/08/02 15:41:34;;;;;;;1.83;1.77;;;28.10;85.30;;;;;;4934832;29;20538;-71
2022/08/02 15:44:01;;;;;;;2.47;1.77;;;28.10;86.00;;;;;;4933551;29;20477;-71
2022/08/02 15:46:28;;;;;;;1.63;1.63;;;28.10;85.70;;;;;;4935181;29;20544;-70
2022/08/02 15:48:54;;;;;;;1.83;1.83;;;28.20;85.20;;;;;;4933271;29;20533;-72
2022/08/02 15:51:21;;;;;;;2.00;2.00;;;28.20;85.30;;;;;;4934021;29;20544;-71
2022/08/02 15:53:49;;;;;;;2.20;2.20;;;28.10;84.60;;;;;;4932166;29;20474;-70
2022/08/02 15:56:16;;;;;;;2.57;2.37;;;28.10;83.70;;;;;;4934368;29;21002;-71
2022/08/02 15:58:42;;;;;;;1.90;1.80;;;28.20;84.60;;;;;;4933455;29;20508;-74
2022/08/02 16:01:09;;;;;;;3.30;2.43;;;28.20;86.30;;;;;;4934000;29;20470;-71
2022/08/02 16:03:36;;;;;;;2.23;2.20;;;28.20;86.00;;;;;;4931832;29;20474;-71
2022/08/02 16:06:02;;;;;;;2.00;1.90;;;28.20;84.70;;;;;;4932407;29;20490;-70
2022/08/02 16:08:29;;;;;;;1.80;1.80;;;28.20;85.00;;;;;;4932622;29;20540;-72
2022/08/02 16:10:57;;;;;;;1.50;1.50;;;28.20;85.10;;;;;;4932292;29;20497;-71
2022/08/02 16:16:08;;;;;;;2.17;2.07;;;28.30;86.40;;;;;;4931204;29;20493;-70
2022/08/02 16:18:34;;;;;;;2.10;2.10;;;28.30;86.80;;;;;;4933336;29;20458;-69
2022/08/02 16:21:01;;;;;;;2.50;2.30;;;28.20;86.60;;;;;;4930834;29;20487;-72
2022/08/02 16:23:28;;;;;;;2.17;2.07;;;28.10;88.00;;;;;;4929261;29;20474;-70
2022/08/02 16:25:54;;;;;;;2.20;2.20;;;28.00;88.00;;;;;;4930686;29;20474;-71
2022/08/02 16:28:22;;;;;;;2.47;2.33;;;28.00;89.30;;;;;;4932617;29;20541;-73
2022/08/02 16:30:49;;;;;;;2.70;2.40;;;28.00;89.70;;;;;;4932103;29;20466;-72
2022/08/02 16:33:16;;;;;;;2.07;2.03;;;28.00;89.50;;;;;;4932557;29;20548;-70
2022/08/02 16:35:43;;;;;;;2.13;2.13;;;28.10;89.00;;;;;;4930637;29;20787;-70
2022/08/02 16:38:10;;;;;;;2.30;2.20;;;28.00;90.00;;;;;;4930770;29;20480;-72
2022/08/02 16:40:36;;;;;;;3.20;2.80;;;28.00;90.00;;;;;;4931599;29;20569;-70
2022/08/02 16:43:04;;;;;;;2.30;2.30;;;27.90;89.70;;;;;;4933439;29;20466;-70
2022/08/02 16:45:32;;;;;;;2.50;2.50;;;27.90;89.40;;;;;;4933192;29;20477;-70
2022/08/02 16:47:58;;;;;;;2.30;2.20;;;27.80;89.60;;;;;;4932432;29;20497;-75
2022/08/02 16:50:26;;;;;;;2.30;2.20;;;27.70;90.70;;;;;;4931753;29;20470;-69
2022/08/02 16:52:53;;;;;;;2.97;2.77;;;27.70;90.60;;;;;;4931429;29;20473;-70
2022/08/02 16:55:20;;;;;;;3.00;2.63;;;27.60;91.10;;;;;;4931163;29;20830;-70
2022/08/02 16:57:46;;;;;;;2.90;2.70;;;27.60;91.50;;;;;;4926225;29;20566;-70
2022/08/02 17:00:14;;;;;;;2.93;2.80;;;27.50;91.90;;;;;;4932886;29;20549;-70
2022/08/02 17:02:42;;;;;;;2.93;2.90;;;27.40;92.10;;;;;;4923962;29;20940;-74